Time;durP1;ratioP1;P1;durP2;ratioP2;P2;SDS_P1;SDS_P2;PMS_P1;PMS_P2;Temp;Humidity;BMP_temperature;BMP_pressure;BME280_temperature;BME280_humidity;BME280_pressure;Samples;Min_cycle;Max_cycle;Signal;HPM_P1;HPM_P2
2022/03/14 00:01:14;;;;;;;;;;;22.30;23.40;;;;;;4932927;29;19927;-68
2022/03/14 00:03:50;;;;;;;;;;;22.30;23.40;;;;;;4933006;29;19927;-69
2022/03/14 00:06:17;;;;;;;;;;;22.30;23.50;;;;;;4932505;29;19931;-69
2022/03/14 00:08:46;;;;;;;;;;;22.20;23.40;;;;;;4932426;29;19933;-68
2022/03/14 00:11:14;;;;;;;;;;;22.20;23.40;;;;;;4932758;29;20296;-68
2022/03/14 00:13:43;;;;;;;;;;;22.20;23.50;;;;;;4932639;29;20308;-68
2022/03/14 00:16:13;;;;;;;;;;;22.20;23.50;;;;;;4932494;29;19983;-68
2022/03/14 00:18:51;;;;;;;;;;;22.20;23.50;;;;;;4931949;29;19934;-68
2022/03/14 00:21:23;;;;;;;;;;;22.20;23.50;;;;;;4932451;29;20388;-68
2022/03/14 00:23:55;;;;;;;;;;;22.20;23.50;;;;;;4931980;29;20005;-68
2022/03/14 00:26:22;;;;;;;;;;;22.20;23.50;;;;;;4932705;29;20292;-68
2022/03/14 00:28:49;;;;;;;;;;;22.20;23.60;;;;;;4932410;29;19926;-68
2022/03/14 00:31:16;;;;;;;;;;;22.20;23.60;;;;;;4930829;29;19982;-68
2022/03/14 00:33:43;;;;;;;;;;;22.20;23.60;;;;;;4931982;29;20147;-68
2022/03/14 00:36:10;;;;;;;;;;;22.20;23.60;;;;;;4932025;29;19931;-68
2022/03/14 00:38:38;;;;;;;;;;;22.20;23.60;;;;;;4932163;29;19931;-68
2022/03/14 00:41:06;;;;;;;;;;;22.10;23.60;;;;;;4932169;29;19931;-68
2022/03/14 00:43:34;;;;;;;;;;;22.10;23.60;;;;;;4931781;29;20005;-68
2022/03/14 00:46:01;;;;;;;;;;;22.10;23.60;;;;;;4931598;29;19970;-69
2022/03/14 00:48:28;;;;;;;;;;;22.10;23.60;;;;;;4931380;29;19978;-68
2022/03/14 00:50:58;;;;;;;;;;;22.10;23.60;;;;;;4932532;29;20312;-68
2022/03/14 00:53:25;;;;;;;;;;;22.10;23.60;;;;;;4931701;29;19934;-70
2022/03/14 00:55:52;;;;;;;;;;;22.10;23.60;;;;;;4931988;29;19926;-68
2022/03/14 00:58:19;;;;;;;;;;;22.10;23.70;;;;;;4931923;29;19960;-67
2022/03/14 01:00:48;;;;;;;;;;;22.10;23.70;;;;;;4931327;29;19982;-68
2022/03/14 01:03:16;;;;;;;;;;;22.10;23.70;;;;;;4931540;29;20009;-68
2022/03/14 01:05:44;;;;;;;;;;;22.10;23.70;;;;;;4931418;29;19934;-68
2022/03/14 01:08:11;;;;;;;;;;;22.10;23.70;;;;;;4931553;29;20014;-68
2022/03/14 01:10:38;;;;;;;;;;;22.10;23.70;;;;;;4931340;29;20388;-68
2022/03/14 01:13:06;;;;;;;;;;;22.10;23.70;;;;;;4931547;29;19931;-68
2022/03/14 01:15:33;;;;;;;;;;;22.10;23.70;;;;;;4931670;29;19986;-68
2022/03/14 01:18:00;;;;;;;;;;;22.10;23.70;;;;;;4931077;29;19927;-68
2022/03/14 01:20:27;;;;;;;;;;;22.10;23.70;;;;;;4929657;29;20288;-68
2022/03/14 01:22:54;;;;;;;;;;;22.00;23.70;;;;;;4931137;29;20391;-68
2022/03/14 01:25:24;;;;;;;;;;;22.10;23.70;;;;;;4931182;29;20577;-68
2022/03/14 01:27:52;;;;;;;;;;;22.10;23.80;;;;;;4931313;29;20420;-68
2022/03/14 01:30:20;;;;;;;;;;;22.10;23.70;;;;;;4931083;29;19974;-68
2022/03/14 01:32:47;;;;;;;;;;;22.10;23.80;;;;;;4931242;29;20293;-68
2022/03/14 01:35:17;;;;;;;;;;;22.10;23.80;;;;;;4930970;29;19973;-68
2022/03/14 01:37:49;;;;;;;;;;;22.10;23.80;;;;;;4931261;29;19998;-68
2022/03/14 01:40:17;;;;;;;;;;;22.10;23.80;;;;;;4930903;29;19934;-68
2022/03/14 01:42:44;;;;;;;;;;;22.00;24.20;;;;;;4930474;29;19931;-68
2022/03/14 01:45:13;;;;;;;;;;;22.00;23.80;;;;;;4929912;29;19927;-68
2022/03/14 01:47:42;;;;;;;;;;;22.00;23.80;;;;;;4930530;29;19938;-69
2022/03/14 01:50:09;;;;;;;;;;;22.00;23.80;;;;;;4930997;29;19927;-67
2022/03/14 01:52:37;;;;;;;;;;;22.00;23.80;;;;;;4931027;29;19927;-67
2022/03/14 01:55:05;;;;;;;;;;;22.00;23.80;;;;;;4930587;29;19926;-68
2022/03/14 01:57:33;;;;;;;;;;;22.00;23.80;;;;;;4930802;29;19927;-68
2022/03/14 02:00:00;;;;;;;;;;;22.00;23.80;;;;;;4933091;29;19927;-68
2022/03/14 02:02:27;;;;;;;;;;;22.00;23.80;;;;;;4934851;29;20340;-68
2022/03/14 02:04:55;;;;;;;;;;;22.00;23.90;;;;;;4934947;29;19927;-68
2022/03/14 02:07:23;;;;;;;;;;;22.00;23.90;;;;;;4934464;29;20448;-68
2022/03/14 02:09:50;;;;;;;;;;;22.00;23.90;;;;;;4934887;29;19970;-68
2022/03/14 02:12:18;;;;;;;;;;;22.00;23.90;;;;;;4934464;29;19927;-67
2022/03/14 02:14:45;;;;;;;;;;;22.00;23.90;;;;;;4934734;29;19977;-68
2022/03/14 02:17:13;;;;;;;;;;;22.00;23.90;;;;;;4934457;29;20384;-68
2022/03/14 02:19:41;;;;;;;;;;;22.00;23.90;;;;;;4934239;29;19959;-68
2022/03/14 02:22:13;;;;;;;;;;;22.00;23.90;;;;;;4934278;29;20396;-68
2022/03/14 02:24:42;;;;;;;;;;;22.00;23.90;;;;;;4934111;29;20021;-68
2022/03/14 02:27:09;;;;;;;;;;;22.00;23.90;;;;;;4934491;29;19990;-68
2022/03/14 02:29:36;;;;;;;;;;;22.00;23.90;;;;;;4934471;29;19974;-67
2022/03/14 02:32:03;;;;;;;;;;;22.00;23.90;;;;;;4934389;29;19986;-67
2022/03/14 02:34:30;;;;;;;;;;;22.00;23.90;;;;;;4934309;29;19927;-68
2022/03/14 02:36:57;;;;;;;;;;;21.90;23.90;;;;;;4934142;29;20353;-67
2022/03/14 02:39:25;;;;;;;;;;;21.90;23.90;;;;;;4934607;29;19926;-68
2022/03/14 02:41:52;;;;;;;;;;;22.00;24.00;;;;;;4933783;29;19986;-68
2022/03/14 02:44:19;;;;;;;;;;;22.00;23.90;;;;;;4933962;29;19966;-67
2022/03/14 02:46:46;;;;;;;;;;;22.00;24.00;;;;;;4934659;29;19953;-67
2022/03/14 02:49:13;;;;;;;;;;;21.90;23.90;;;;;;4934089;29;19927;-68
2022/03/14 02:51:41;;;;;;;;;;;21.90;23.90;;;;;;4934130;29;19926;-66
2022/03/14 02:54:09;;;;;;;;;;;21.90;24.00;;;;;;4932978;29;19993;-67
2022/03/14 02:56:36;;;;;;;;;;;21.90;24.00;;;;;;4934079;29;20005;-67
2022/03/14 02:59:05;;;;;;;;;;;21.90;24.00;;;;;;4933571;29;20365;-67
2022/03/14 03:01:33;;;;;;;;;;;21.90;24.00;;;;;;4932064;29;19976;-67
2022/03/14 03:04:00;;;;;;;;;;;21.90;24.00;;;;;;4933963;29;20358;-67
2022/03/14 03:06:27;;;;;;;;;;;22.00;24.00;;;;;;4933385;29;20381;-67
2022/03/14 03:08:54;;;;;;;;;;;21.90;24.00;;;;;;4934008;29;19985;-67
2022/03/14 03:11:22;;;;;;;;;;;21.90;24.00;;;;;;4933327;29;19927;-67
2022/03/14 03:13:51;;;;;;;;;;;21.90;24.00;;;;;;4933480;29;19938;-67
2022/03/14 03:16:18;;;;;;;;;;;21.90;24.00;;;;;;4933469;29;19974;-67
2022/03/14 03:18:45;;;;;;;;;;;21.90;24.00;;;;;;4933127;29;20695;-67
2022/03/14 03:21:12;;;;;;;;;;;21.90;24.00;;;;;;4933387;29;20379;-67
2022/03/14 03:23:40;;;;;;;;;;;21.90;24.00;;;;;;4933642;29;19927;-67
2022/03/14 03:26:08;;;;;;;;;;;21.90;24.00;;;;;;4933318;29;19979;-67
2022/03/14 03:28:35;;;;;;;;;;;21.90;24.00;;;;;;4935280;29;19982;-67
2022/03/14 03:31:06;;;;;;;;;;;21.90;24.50;;;;;;4931574;29;19965;-67
2022/03/14 03:33:34;;;;;;;;;;;21.90;24.00;;;;;;4932830;29;20381;-67
2022/03/14 03:36:01;;;;;;;;;;;21.90;24.00;;;;;;4933015;29;19930;-67
2022/03/14 03:38:28;;;;;;;;;;;21.90;24.00;;;;;;4933063;29;19930;-67
2022/03/14 03:40:55;;;;;;;;;;;21.90;24.00;;;;;;4932734;29;19930;-67
2022/03/14 03:43:22;;;;;;;;;;;21.90;24.00;;;;;;4933065;29;20060;-67
2022/03/14 03:45:49;;;;;;;;;;;21.90;24.10;;;;;;4933156;29;19986;-67
2022/03/14 03:48:18;;;;;;;;;;;21.90;24.10;;;;;;4932662;29;19982;-67
2022/03/14 03:50:45;;;;;;;;;;;21.90;24.10;;;;;;4932752;29;19977;-67
2022/03/14 03:53:12;;;;;;;;;;;21.90;24.60;;;;;;4933244;29;19998;-67
2022/03/14 03:55:39;;;;;;;;;;;21.80;24.10;;;;;;4932927;29;20005;-67
2022/03/14 03:58:06;;;;;;;;;;;21.80;24.10;;;;;;4931678;29;19927;-66
2022/03/14 04:00:34;;;;;;;;;;;21.90;24.10;;;;;;4932637;29;19927;-68
2022/03/14 04:03:01;;;;;;;;;;;21.90;24.10;;;;;;4932575;29;19934;-68
2022/03/14 04:05:30;;;;;;;;;;;21.80;24.10;;;;;;4932667;29;20022;-67
2022/03/14 04:08:00;;;;;;;;;;;21.90;24.10;;;;;;4932686;29;19973;-68
2022/03/14 04:10:29;;;;;;;;;;;21.80;24.10;;;;;;4932812;29;19963;-67
2022/03/14 04:12:59;;;;;;;;;;;21.90;24.10;;;;;;4932151;29;19926;-67
2022/03/14 04:15:27;;;;;;;;;;;21.80;24.10;;;;;;4932345;29;20400;-66
2022/03/14 04:17:57;;;;;;;;;;;21.80;24.10;;;;;;4932712;29;19953;-67
2022/03/14 04:20:24;;;;;;;;;;;21.80;24.10;;;;;;4932347;29;19927;-67
2022/03/14 04:22:52;;;;;;;;;;;21.80;24.10;;;;;;4932010;29;19961;-67
2022/03/14 04:25:19;;;;;;;;;;;21.80;24.10;;;;;;4931907;29;19931;-67
2022/03/14 04:27:46;;;;;;;;;;;21.80;24.20;;;;;;4932245;29;19935;-67
2022/03/14 04:30:16;;;;;;;;;;;21.80;24.10;;;;;;4932296;29;19935;-67
2022/03/14 04:32:44;;;;;;;;;;;21.80;24.20;;;;;;4931913;29;19926;-67
2022/03/14 04:35:11;;;;;;;;;;;21.80;24.20;;;;;;4932840;29;20266;-67
2022/03/14 04:37:38;;;;;;;;;;;21.80;24.20;;;;;;4931784;29;20392;-67
2022/03/14 04:40:06;;;;;;;;;;;21.80;24.60;;;;;;4931807;29;19931;-67
2022/03/14 04:42:32;;;;;;;;;;;21.80;24.20;;;;;;4931590;29;19930;-67
2022/03/14 04:45:00;;;;;;;;;;;21.80;24.20;;;;;;4932169;29;19958;-67
2022/03/14 04:47:27;;;;;;;;;;;21.80;24.20;;;;;;4930837;29;19974;-67
2022/03/14 04:49:54;;;;;;;;;;;21.80;24.20;;;;;;4932028;29;19950;-67
2022/03/14 04:52:21;;;;;;;;;;;21.80;24.20;;;;;;4931604;29;19927;-67
2022/03/14 04:54:54;;;;;;;;;;;21.80;24.20;;;;;;4931863;29;20348;-67
2022/03/14 04:57:21;;;;;;;;;;;21.80;24.20;;;;;;4930631;29;19998;-66
2022/03/14 04:59:47;;;;;;;;;;;21.80;24.20;;;;;;4931384;29;20440;-67
2022/03/14 05:02:19;;;;;;;;;;;21.80;24.20;;;;;;4931611;29;20384;-67
2022/03/14 05:04:46;;;;;;;;;;;21.80;24.20;;;;;;4931446;29;19927;-68
2022/03/14 05:07:14;;;;;;;;;;;21.80;24.20;;;;;;4931468;29;19978;-67
2022/03/14 05:09:41;;;;;;;;;;;21.80;24.20;;;;;;4931351;29;20451;-67
2022/03/14 05:12:08;;;;;;;;;;;21.70;24.20;;;;;;4931509;29;19927;-67
2022/03/14 05:14:35;;;;;;;;;;;21.80;24.20;;;;;;4931230;29;19937;-67
2022/03/14 05:17:02;;;;;;;;;;;21.80;24.20;;;;;;4931599;29;19983;-67
2022/03/14 05:19:29;;;;;;;;;;;21.80;24.30;;;;;;4930696;29;19973;-67
2022/03/14 05:21:56;;;;;;;;;;;21.80;24.20;;;;;;4931556;29;19926;-67
2022/03/14 05:24:23;;;;;;;;;;;21.80;24.30;;;;;;4930943;29;19927;-67
2022/03/14 05:26:52;;;;;;;;;;;21.80;24.30;;;;;;4931441;29;19934;-67
2022/03/14 05:29:19;;;;;;;;;;;21.80;24.30;;;;;;4930191;29;20491;-67
2022/03/14 05:31:47;;;;;;;;;;;21.80;24.30;;;;;;4930935;29;19930;-66
2022/03/14 05:34:14;;;;;;;;;;;21.80;24.30;;;;;;4930988;29;20352;-66
2022/03/14 05:36:41;;;;;;;;;;;21.80;24.30;;;;;;4931194;29;19934;-66
2022/03/14 05:39:08;;;;;;;;;;;21.80;24.30;;;;;;4931389;29;19927;-67
2022/03/14 05:41:35;;;;;;;;;;;21.80;24.30;;;;;;4930965;29;19978;-66
2022/03/14 05:44:02;;;;;;;;;;;21.80;24.20;;;;;;4930182;29;20021;-67
2022/03/14 05:46:29;;;;;;;;;;;21.80;24.70;;;;;;4930824;29;20030;-67
2022/03/14 05:48:57;;;;;;;;;;;21.90;24.30;;;;;;4930920;29;20037;-67
2022/03/14 05:51:24;;;;;;;;;;;21.90;24.30;;;;;;4931013;29;19931;-67
2022/03/14 05:53:51;;;;;;;;;;;21.90;24.30;;;;;;4930760;29;20426;-67
2022/03/14 05:56:19;;;;;;;;;;;21.90;24.30;;;;;;4930841;29;20296;-67
2022/03/14 05:58:46;;;;;;;;;;;21.80;24.20;;;;;;4930842;29;19931;-67
2022/03/14 06:01:13;;;;;;;;;;;21.90;24.30;;;;;;4930783;29;20039;-67
2022/03/14 06:03:41;;;;;;;;;;;21.90;24.30;;;;;;4930487;29;20017;-67
2022/03/14 06:06:08;;;;;;;;;;;21.90;24.20;;;;;;4931102;29;20018;-67
2022/03/14 06:08:36;;;;;;;;;;;21.90;24.20;;;;;;4930599;29;19926;-67
2022/03/14 06:11:06;;;;;;;;;;;21.90;24.00;;;;;;4930743;29;19974;-67
2022/03/14 06:13:33;;;;;;;;;;;21.90;23.80;;;;;;4930079;29;19934;-67
2022/03/14 06:16:00;;;;;;;;;;;21.90;23.80;;;;;;4931130;29;19966;-66
2022/03/14 06:18:29;;;;;;;;;;;21.90;23.80;;;;;;4930700;29;20357;-67
2022/03/14 06:20:56;;;;;;;;;;;21.90;23.80;;;;;;4930626;29;20001;-67
2022/03/14 06:23:23;;;;;;;;;;;21.90;23.70;;;;;;4930535;29;19989;-67
2022/03/14 06:25:51;;;;;;;;;;;21.90;23.60;;;;;;4930477;29;19930;-67
2022/03/14 06:28:18;;;;;;;;;;;21.90;23.50;;;;;;4930566;29;19931;-69
2022/03/14 06:30:46;;;;;;;;;;;22.00;23.40;;;;;;4930397;29;20352;-67
2022/03/14 06:33:13;;;;;;;;;;;22.00;23.40;;;;;;4930644;29;19931;-67
2022/03/14 06:35:40;;;;;;;;;;;22.10;23.30;;;;;;4929495;29;19931;-67
2022/03/14 06:38:07;;;;;;;;;;;22.10;23.30;;;;;;4929211;29;20021;-67
2022/03/14 06:40:35;;;;;;;;;;;22.20;23.30;;;;;;4930414;29;19942;-67
2022/03/14 06:43:02;;;;;;;;;;;22.30;23.20;;;;;;4930212;29;19981;-67
2022/03/14 06:45:31;;;;;;;;;;;22.30;23.20;;;;;;4932128;29;19973;-67
2022/03/14 06:47:58;;;;;;;;;;;22.30;23.10;;;;;;4934175;29;19927;-67
2022/03/14 06:50:26;;;;;;;;;;;22.40;23.00;;;;;;4933747;29;19969;-67
2022/03/14 06:52:57;;;;;;;;;;;22.50;23.40;;;;;;4933659;29;19931;-67
2022/03/14 06:55:24;;;;;;;;;;;22.60;23.00;;;;;;4934035;29;19927;-67
2022/03/14 06:57:51;;;;;;;;;;;22.70;23.00;;;;;;4933768;29;19938;-66
2022/03/14 07:00:18;;;;;;;;;;;22.70;22.80;;;;;;4933539;29;19974;-68
2022/03/14 07:02:45;;;;;;;;;;;22.80;22.80;;;;;;4933602;29;20009;-67
2022/03/14 07:05:15;;;;;;;;;;;22.90;22.70;;;;;;4933855;29;19931;-67
2022/03/14 07:07:42;;;;;;;;;;;22.90;22.60;;;;;;4933620;29;19982;-67
2022/03/14 07:10:09;;;;;;;;;;;23.00;22.60;;;;;;4933358;29;19926;-68
2022/03/14 07:12:45;;;;;;;;;;;23.00;22.50;;;;;;4933582;29;20448;-67
2022/03/14 07:15:13;;;;;;;;;;;23.20;22.50;;;;;;4932198;29;20388;-67
2022/03/14 07:17:41;;;;;;;;;;;23.20;22.40;;;;;;4933944;29;20328;-68
2022/03/14 07:20:08;;;;;;;;;;;23.30;22.30;;;;;;4933299;29;20467;-68
2022/03/14 07:22:49;;;;;;;;;;;23.40;22.30;;;;;;4933526;29;20391;-68
2022/03/14 07:25:21;;;;;;;;;;;23.40;22.20;;;;;;4933119;29;19937;-68
2022/03/14 07:27:48;;;;;;;;;;;23.50;22.20;;;;;;4933141;29;19977;-67
2022/03/14 07:30:15;;;;;;;;;;;23.50;22.00;;;;;;4933256;29;19990;-68
2022/03/14 07:32:42;;;;;;;;;;;23.60;22.00;;;;;;4933158;29;19930;-68
2022/03/14 07:35:10;;;;;;;;;;;23.60;21.90;;;;;;4933195;29;19933;-67
2022/03/14 07:37:38;;;;;;;;;;;23.70;21.90;;;;;;4932989;29;19927;-68
2022/03/14 07:40:06;;;;;;;;;;;23.70;21.80;;;;;;4933231;29;19934;-67
2022/03/14 07:42:38;;;;;;;;;;;23.80;21.80;;;;;;4932777;29;19927;-68
2022/03/14 07:45:05;;;;;;;;;;;23.90;21.70;;;;;;4932926;29;20360;-68
2022/03/14 07:47:33;;;;;;;;;;;24.00;21.70;;;;;;4932846;29;19973;-68
2022/03/14 07:50:00;;;;;;;;;;;24.00;21.60;;;;;;4932447;29;20288;-67
2022/03/14 07:52:27;;;;;;;;;;;24.10;21.60;;;;;;4932882;29;20336;-67
2022/03/14 07:54:54;;;;;;;;;;;24.10;21.50;;;;;;4932989;29;20361;-67
2022/03/14 07:57:21;;;;;;;;;;;24.20;21.40;;;;;;4932090;29;19953;-68
2022/03/14 07:59:48;;;;;;;;;;;24.20;21.40;;;;;;4932509;29;20365;-68
2022/03/14 08:02:15;;;;;;;;;;;24.30;21.40;;;;;;4932321;29;19985;-68
2022/03/14 08:04:42;;;;;;;;;;;24.30;21.30;;;;;;4932852;29;20298;-68
2022/03/14 08:07:09;;;;;;;;;;;24.30;21.30;;;;;;4932884;29;19974;-68
2022/03/14 08:09:37;;;;;;;;;;;24.40;21.30;;;;;;4932139;29;19926;-68
2022/03/14 08:12:04;;;;;;;;;;;24.40;21.30;;;;;;4932160;29;19927;-68
2022/03/14 08:14:32;;;;;;;;;;;24.40;21.20;;;;;;4932474;29;19978;-67
2022/03/14 08:16:59;;;;;;;;;;;24.50;21.20;;;;;;4932431;29;19930;-67
2022/03/14 08:19:26;;;;;;;;;;;24.50;21.20;;;;;;4932164;29;20037;-68
2022/03/14 08:21:57;;;;;;;;;;;24.50;21.10;;;;;;4931745;29;21310;-68
2022/03/14 08:24:24;;;;;;;;;;;24.60;21.10;;;;;;4932048;29;19931;-68
2022/03/14 08:26:51;;;;;;;;;;;24.60;21.10;;;;;;4932054;29;19931;-67
2022/03/14 08:29:18;;;;;;;;;;;24.70;21.10;;;;;;4932608;29;19927;-68
2022/03/14 08:31:45;;;;;;;;;;;24.70;21.00;;;;;;4931939;29;20594;-68
2022/03/14 08:34:13;;;;;;;;;;;24.70;21.00;;;;;;4932216;29;19927;-68
2022/03/14 08:36:40;;;;;;;;;;;24.70;21.00;;;;;;4932056;29;19927;-68
2022/03/14 08:39:08;;;;;;;;;;;24.80;21.00;;;;;;4931920;29;20005;-67
2022/03/14 08:41:40;;;;;;;;;;;24.80;21.00;;;;;;4932240;29;19970;-67
2022/03/14 08:44:07;;;;;;;;;;;24.80;20.90;;;;;;4931666;29;19987;-68
2022/03/14 08:46:35;;;;;;;;;;;24.90;20.90;;;;;;4932195;29;19990;-68
2022/03/14 08:49:02;;;;;;;;;;;24.90;20.90;;;;;;4931718;29;20017;-68
2022/03/14 08:51:29;;;;;;;;;;;24.90;20.90;;;;;;4931722;29;19926;-68
2022/03/14 08:53:56;;;;;;;;;;;25.00;20.90;;;;;;4931764;29;20313;-68
2022/03/14 08:56:23;;;;;;;;;;;25.00;20.80;;;;;;4931674;29;20376;-68
2022/03/14 08:58:50;;;;;;;;;;;25.10;20.90;;;;;;4931578;29;20542;-68
2022/03/14 09:01:17;;;;;;;;;;;25.10;21.00;;;;;;4931536;29;19970;-68
2022/03/14 09:03:44;;;;;;;;;;;25.10;21.00;;;;;;4931513;29;20321;-68
2022/03/14 09:06:11;;;;;;;;;;;25.20;21.10;;;;;;4931524;29;20377;-68
2022/03/14 09:08:39;;;;;;;;;;;25.20;21.10;;;;;;4931290;29;19931;-68
2022/03/14 09:11:06;;;;;;;;;;;25.20;21.10;;;;;;4931552;29;19927;-68
2022/03/14 09:13:34;;;;;;;;;;;25.20;21.10;;;;;;4931151;29;19980;-68
2022/03/14 09:16:01;;;;;;;;;;;25.20;21.10;;;;;;4931408;29;20133;-68
2022/03/14 09:18:29;;;;;;;;;;;25.30;21.20;;;;;;4931188;29;19933;-68
2022/03/14 09:20:58;;;;;;;;;;;25.30;21.60;;;;;;4931370;29;19927;-67
2022/03/14 09:23:26;;;;;;;;;;;25.30;21.10;;;;;;4930925;29;19978;-68
2022/03/14 09:25:55;;;;;;;;;;;25.30;21.10;;;;;;4930910;29;19926;-68
2022/03/14 09:28:22;;;;;;;;;;;25.40;21.10;;;;;;4931160;29;19930;-68
2022/03/14 09:30:49;;;;;;;;;;;25.40;21.10;;;;;;4931219;29;20403;-68
2022/03/14 09:33:17;;;;;;;;;;;25.40;21.10;;;;;;4927981;29;19931;-68
2022/03/14 09:35:44;;;;;;;;;;;25.40;21.00;;;;;;4912116;29;19927;-68
2022/03/14 09:38:15;;;;;;;;;;;25.40;21.00;;;;;;4912420;29;19934;-68
2022/03/14 09:40:43;;;;;;;;;;;25.50;21.10;;;;;;4912156;29;20346;-68
2022/03/14 09:43:10;;;;;;;;;;;25.50;21.00;;;;;;4912603;29;19974;-68
2022/03/14 09:45:38;;;;;;;;;;;25.50;21.00;;;;;;4912170;29;19980;-68
2022/03/14 09:48:08;;;;;;;;;;;25.50;21.00;;;;;;4912062;29;19927;-68
2022/03/14 09:50:37;;;;;;;;;;;25.50;20.90;;;;;;4911607;29;19933;-68
2022/03/14 09:53:05;;;;;;;;;;;25.60;20.90;;;;;;4912028;29;19974;-67
2022/03/14 09:55:41;;;;;;;;;;;25.60;20.90;;;;;;4925410;29;19935;-68
2022/03/14 09:58:14;;;;;;;;;;;25.60;20.90;;;;;;4893609;29;20466;-68
2022/03/14 10:00:42;;;;;;;;;;;25.60;20.90;;;;;;4902071;29;20527;-68
2022/03/14 10:03:16;;;;;;;;;;;25.60;20.90;;;;;;4901301;29;20292;-68
2022/03/14 10:05:44;;;;;;;;;;;25.70;20.80;;;;;;4922573;29;20231;-68
2022/03/14 10:08:12;;;;;;;;;;;25.70;20.80;;;;;;4903429;29;19931;-68
2022/03/14 10:10:39;;;;;;;;;;;25.70;20.70;;;;;;4908476;29;20386;-68
2022/03/14 10:13:22;;;;;;;;;;;25.70;20.70;;;;;;4898539;29;19978;-68
2022/03/14 10:15:50;;;;;;;;;;;25.70;20.70;;;;;;4895809;29;19984;-68
2022/03/14 10:18:18;;;;;;;;;;;25.80;20.70;;;;;;4909434;29;19937;-68
2022/03/14 10:20:55;;;;;;;;;;;25.80;20.70;;;;;;4913677;29;19963;-68
2022/03/14 10:23:37;;;;;;;;;;;25.80;20.70;;;;;;4909164;29;19928;-68
2022/03/14 10:26:08;;;;;;;;;;;25.90;20.80;;;;;;4902621;29;19931;-68
2022/03/14 10:28:38;;;;;;;;;;;25.90;20.80;;;;;;4906843;29;19982;-68
2022/03/14 10:31:31;;;;;;;;;;;25.90;20.70;;;;;;4896494;29;19927;-68
2022/03/14 10:34:11;;;;;;;;;;;25.90;20.70;;;;;;4896721;29;19933;-69
2022/03/14 10:36:44;;;;;;;;;;;25.90;20.70;;;;;;4896377;29;20099;-69
2022/03/14 10:39:15;;;;;;;;;;;25.90;20.70;;;;;;4896165;29;20027;-68
2022/03/14 10:41:44;;;;;;;;;;;25.90;20.70;;;;;;4896361;29;19931;-68
2022/03/14 10:44:32;;;;;;;;;;;25.90;20.70;;;;;;4895856;29;19928;-69
2022/03/14 10:47:00;;;;;;;;;;;26.00;20.70;;;;;;4898452;29;19942;-68
2022/03/14 10:49:28;;;;;;;;;;;26.00;20.70;;;;;;4898001;29;19931;-69
2022/03/14 10:51:56;;;;;;;;;;;26.00;20.70;;;;;;4900659;29;20003;-69
2022/03/14 10:54:24;;;;;;;;;;;26.00;20.70;;;;;;4906578;29;19931;-68
2022/03/14 10:57:04;;;;;;;;;;;26.00;20.70;;;;;;4902235;29;20386;-69
2022/03/14 10:59:32;;;;;;;;;;;26.00;20.60;;;;;;4910204;29;19980;-68
2022/03/14 11:02:00;;;;;;;;;;;26.00;20.70;;;;;;4895638;29;19979;-68
2022/03/14 11:04:27;;;;;;;;;;;26.00;20.60;;;;;;4895535;29;19927;-69
2022/03/14 11:06:58;;;;;;;;;;;26.00;20.60;;;;;;4895980;29;20401;-69
2022/03/14 11:09:39;;;;;;;;;;;26.00;20.60;;;;;;4895862;29;19928;-69
2022/03/14 11:12:11;;;;;;;;;;;26.00;20.60;;;;;;4896025;29;19952;-69
2022/03/14 11:14:39;;;;;;;;;;;26.00;20.60;;;;;;4895774;29;20018;-69
2022/03/14 11:17:10;;;;;;;;;;;26.00;20.60;;;;;;4895866;29;19978;-68
2022/03/14 11:19:38;;;;;;;;;;;26.00;20.60;;;;;;4895467;29;19979;-69
2022/03/14 11:22:08;;;;;;;;;;;26.10;20.60;;;;;;4895379;29;20381;-69
2022/03/14 11:24:35;;;;;;;;;;;26.10;20.50;;;;;;4895294;29;19971;-68
2022/03/14 11:27:02;;;;;;;;;;;26.10;20.50;;;;;;4895756;29;19932;-68
2022/03/14 11:29:33;;;;;;;;;;;26.10;20.50;;;;;;4895468;29;19999;-69
2022/03/14 11:32:00;;;;;;;;;;;26.10;20.50;;;;;;4895244;29;20014;-69
2022/03/14 11:34:47;;;;;;;;;;;26.10;20.50;;;;;;4895436;29;20046;-70
2022/03/14 11:37:16;;;;;;;;;;;26.10;20.60;;;;;;4894982;29;19928;-69
2022/03/14 11:39:43;;;;;;;;;;;26.10;20.50;;;;;;4895368;29;19928;-68
2022/03/14 11:42:12;;;;;;;;;;;26.10;20.50;;;;;;4894215;29;20388;-68
2022/03/14 11:44:39;;;;;;;;;;;26.10;20.40;;;;;;4894842;29;19974;-68
2022/03/14 11:47:08;;;;;;;;;;;26.20;20.50;;;;;;4895375;29;19975;-69
2022/03/14 11:49:36;;;;;;;;;;;26.20;20.50;;;;;;4894990;29;19927;-69
2022/03/14 11:52:20;;;;;;;;;;;26.20;20.40;;;;;;4895218;29;19977;-69
2022/03/14 11:54:48;;;;;;;;;;;26.20;20.40;;;;;;4895269;29;20337;-69
2022/03/14 11:57:34;;;;;;;;;;;26.30;20.40;;;;;;4895146;29;20266;-69
2022/03/14 12:00:21;;;;;;;;;;;26.30;20.40;;;;;;4894720;29;20381;-68
2022/03/14 12:02:49;;;;;;;;;;;26.30;20.30;;;;;;4894837;29;19934;-69
2022/03/14 12:05:38;;;;;;;;;;;26.30;20.30;;;;;;4895069;29;19931;-68
2022/03/14 12:08:25;;;;;;;;;;;26.30;20.30;;;;;;4894076;29;19935;-69
2022/03/14 12:10:52;;;;;;;;;;;26.30;20.30;;;;;;4893363;29;20390;-68
2022/03/14 12:13:39;;;;;;;;;;;26.30;20.20;;;;;;4894751;29;19932;-68
2022/03/14 12:16:26;;;;;;;;;;;26.40;20.30;;;;;;4894484;29;19931;-68
2022/03/14 12:18:57;;;;;;;;;;;26.40;20.20;;;;;;4894305;29;20385;-68
2022/03/14 12:21:44;;;;;;;;;;;26.40;20.20;;;;;;4894384;29;20436;-68
2022/03/14 12:24:31;;;;;;;;;;;26.40;20.20;;;;;;4894910;29;19967;-68
2022/03/14 12:26:59;;;;;;;;;;;26.40;20.20;;;;;;4894333;29;19928;-68
2022/03/14 12:29:37;;;;;;;;;;;26.40;20.20;;;;;;4894325;29;19935;-68
2022/03/14 12:32:24;;;;;;;;;;;26.40;20.20;;;;;;4894342;29;19935;-68
2022/03/14 12:35:08;;;;;;;;;;;26.40;20.20;;;;;;4894535;29;19979;-68
2022/03/14 12:37:49;;;;;;;;;;;26.40;20.20;;;;;;4894501;29;20014;-68
2022/03/14 12:40:37;;;;;;;;;;;26.40;20.20;;;;;;4894322;29;19971;-68
2022/03/14 12:43:24;;;;;;;;;;;26.30;20.20;;;;;;4892369;29;19958;-68
2022/03/14 12:45:52;;;;;;;;;;;26.30;20.30;;;;;;4893832;29;19958;-68
2022/03/14 12:48:21;;;;;;;;;;;26.30;20.20;;;;;;4894045;29;19983;-68
2022/03/14 12:50:56;;;;;;;;;;;26.20;20.20;;;;;;4893721;29;19967;-68
2022/03/14 12:53:44;;;;;;;;;;;26.20;20.20;;;;;;4894005;29;19932;-69
2022/03/14 12:56:15;;;;;;;;;;;26.10;20.30;;;;;;4892709;29;19927;-69
2022/03/14 12:58:50;;;;;;;;;;;26.10;20.30;;;;;;4893645;29;19931;-68
2022/03/14 13:01:18;;;;;;;;;;;26.00;20.30;;;;;;4893704;29;19927;-69
2022/03/14 13:03:46;;;;;;;;;;;26.00;20.30;;;;;;4893925;29;19928;-68
2022/03/14 13:06:14;;;;;;;;;;;26.00;20.30;;;;;;4893931;29;19927;-68
2022/03/14 13:08:46;;;;;;;;;;;26.00;20.30;;;;;;4893300;29;19987;-68
2022/03/14 13:11:17;;;;;;;;;;;25.90;20.30;;;;;;4893984;29;19934;-68
2022/03/14 13:13:45;;;;;;;;;;;25.90;20.30;;;;;;4893110;29;20402;-68
2022/03/14 13:16:13;;;;;;;;;;;25.90;20.40;;;;;;4893659;29;19932;-68
2022/03/14 13:18:45;;;;;;;;;;;25.80;20.30;;;;;;4893493;29;20157;-68
2022/03/14 13:21:20;;;;;;;;;;;25.80;20.30;;;;;;4893333;29;20018;-68
2022/03/14 13:23:52;;;;;;;;;;;25.80;20.20;;;;;;4892353;29;19927;-68
2022/03/14 13:26:20;;;;;;;;;;;25.80;20.20;;;;;;4892526;29;20345;-67
2022/03/14 13:28:51;;;;;;;;;;;25.70;20.20;;;;;;4893656;29;19979;-68
2022/03/14 13:31:29;;;;;;;;;;;25.70;20.30;;;;;;4893084;29;19952;-68
2022/03/14 13:33:56;;;;;;;;;;;25.70;20.30;;;;;;4893066;29;19934;-68
2022/03/14 13:36:23;;;;;;;;;;;25.70;20.20;;;;;;4893000;29;19977;-68
2022/03/14 13:38:52;;;;;;;;;;;25.70;20.20;;;;;;4893202;29;19971;-68
2022/03/14 13:41:22;;;;;;;;;;;25.70;20.20;;;;;;4893655;29;19931;-68
2022/03/14 13:43:51;;;;;;;;;;;25.70;20.30;;;;;;4893283;29;20046;-68
2022/03/14 13:46:25;;;;;;;;;;;25.70;20.30;;;;;;4907864;29;19967;-68
2022/03/14 13:48:55;;;;;;;;;;;25.70;20.30;;;;;;4893387;29;19935;-68
2022/03/14 13:51:28;;;;;;;;;;;25.70;20.30;;;;;;4892957;29;19932;-68
2022/03/14 13:53:55;;;;;;;;;;;25.60;20.20;;;;;;4892659;29;20026;-68
2022/03/14 13:56:22;;;;;;;;;;;25.60;20.30;;;;;;4892573;29;19979;-68
2022/03/14 13:59:09;;;;;;;;;;;25.60;20.30;;;;;;4893033;29;19927;-67
2022/03/14 14:01:40;;;;;;;;;;;25.60;20.40;;;;;;4892994;29;20023;-68
2022/03/14 14:04:11;;;;;;;;;;;25.60;20.30;;;;;;4893226;29;19928;-68
2022/03/14 14:06:46;;;;;;;;;;;25.60;20.30;;;;;;4892774;29;19983;-67
2022/03/14 14:09:17;;;;;;;;;;;25.60;20.30;;;;;;4891586;29;19931;-68
2022/03/14 14:12:00;;;;;;;;;;;25.60;20.30;;;;;;4893213;29;20022;-68
2022/03/14 14:14:28;;;;;;;;;;;25.60;20.30;;;;;;4892706;29;20724;-68
2022/03/14 14:17:09;;;;;;;;;;;25.60;20.20;;;;;;4892014;29;20496;-67
2022/03/14 14:19:36;;;;;;;;;;;25.50;20.20;;;;;;4892910;29;19927;-67
2022/03/14 14:22:04;;;;;;;;;;;25.50;20.30;;;;;;4892815;29;20030;-68
2022/03/14 14:24:31;;;;;;;;;;;25.50;20.30;;;;;;4892557;29;19931;-67
2022/03/14 14:26:58;;;;;;;;;;;25.50;20.30;;;;;;4893059;29;20024;-68
2022/03/14 14:29:45;;;;;;;;;;;25.50;20.30;;;;;;4892713;29;19991;-68